Time;durP1;ratioP1;P1;durP2;ratioP2;P2;SDS_P1;SDS_P2;PMS_P1;PMS_P2;Temp;Humidity;BMP_temperature;BMP_pressure;BME280_temperature;BME280_humidity;BME280_pressure;Samples;Min_cycle;Max_cycle;Signal;HPM_P1;HPM_P2
2021/08/27 00:00:06;;;;;;;2.38;2.13;;;18.80;98.00;;;;;;5069395;28;20191;-73
2021/08/27 00:02:32;;;;;;;2.60;2.42;;;18.80;98.10;;;;;;5063849;28;20213;-73
2021/08/27 00:04:58;;;;;;;4.43;2.30;;;18.80;98.30;;;;;;5069586;28;20209;-72
2021/08/27 00:07:23;;;;;;;2.22;2.00;;;18.80;98.40;;;;;;5063568;28;20350;-73
2021/08/27 00:09:49;;;;;;;2.08;1.98;;;18.80;98.20;;;;;;5066560;28;20246;-73
2021/08/27 00:12:15;;;;;;;2.05;1.95;;;18.80;98.10;;;;;;5065886;28;20269;-73
2021/08/27 00:14:41;;;;;;;2.17;2.05;;;18.80;98.10;;;;;;5068330;28;20191;-73
2021/08/27 00:17:07;;;;;;;2.42;1.98;;;18.80;98.10;;;;;;5070164;28;20187;-72
2021/08/27 00:19:33;;;;;;;1.77;1.70;;;18.80;98.20;;;;;;5070417;28;20246;-73
2021/08/27 00:21:59;;;;;;;1.73;1.70;;;18.90;98.30;;;;;;5076173;28;20265;-73
2021/08/27 00:24:24;;;;;;;2.08;1.98;;;18.90;98.20;;;;;;5068891;28;20249;-73
2021/08/27 00:26:50;;;;;;;2.45;1.88;;;18.90;98.30;;;;;;5067757;28;20255;-73
2021/08/27 00:29:16;;;;;;;2.03;1.92;;;18.90;98.40;;;;;;5067453;28;20188;-73
2021/08/27 00:31:41;;;;;;;2.03;1.95;;;18.90;98.30;;;;;;5072574;28;20179;-72
2021/08/27 00:34:07;;;;;;;2.00;1.90;;;18.90;98.20;;;;;;5075144;28;20194;-72
2021/08/27 00:36:33;;;;;;;2.70;2.10;;;18.90;98.30;;;;;;5074056;28;20193;-72
2021/08/27 00:38:59;;;;;;;1.92;1.83;;;18.90;98.20;;;;;;5078740;28;20179;-73
2021/08/27 00:41:24;;;;;;;2.97;1.60;;;18.90;98.20;;;;;;5072042;28;20183;-73
2021/08/27 00:43:50;;;;;;;1.85;1.75;;;18.90;98.20;;;;;;5073934;28;20218;-73
2021/08/27 00:46:16;;;;;;;2.20;2.10;;;18.90;98.20;;;;;;5068105;28;20189;-73
2021/08/27 00:48:42;;;;;;;4.07;2.70;;;18.90;98.20;;;;;;5066671;28;20183;-73
2021/08/27 00:51:08;;;;;;;1.85;1.80;;;18.90;98.30;;;;;;5077669;28;20574;-74
2021/08/27 00:53:34;;;;;;;3.47;2.38;;;19.00;98.30;;;;;;5070569;28;20179;-73
2021/08/27 00:56:01;;;;;;;2.13;2.03;;;18.90;98.40;;;;;;5070651;28;20674;-72
2021/08/27 00:58:27;;;;;;;2.38;2.28;;;19.00;98.20;;;;;;5074240;28;20198;-73
2021/08/27 01:00:52;;;;;;;3.38;2.58;;;18.90;98.40;;;;;;5074752;28;21034;-73
2021/08/27 01:03:18;;;;;;;2.63;2.40;;;18.90;98.20;;;;;;5070614;28;20203;-72
2021/08/27 01:05:48;;;;;;;2.58;2.42;;;18.90;98.20;;;;;;5069804;28;20228;-73
2021/08/27 01:08:33;;;;;;;2.20;2.10;;;18.90;98.00;;;;;;5063307;28;20671;-73
2021/08/27 01:11:11;;;;;;;2.45;2.13;;;19.00;97.70;;;;;;5071076;28;20236;-72
2021/08/27 01:14:03;;;;;;;4.35;2.50;;;19.00;97.70;;;;;;5070432;28;20190;-72
2021/08/27 01:16:53;;;;;;;2.70;2.50;;;19.00;97.90;;;;;;5070861;28;20695;-72
2021/08/27 01:19:21;;;;;;;2.58;2.28;;;19.00;98.30;;;;;;5068531;28;20192;-72
2021/08/27 01:22:31;;;;;;;2.88;2.60;;;19.00;98.50;;;;;;5071175;28;20598;-72
2021/08/27 01:24:58;;;;;;;2.75;2.55;;;19.00;98.10;;;;;;5068406;28;20189;-74
2021/08/27 01:27:25;;;;;;;2.90;2.75;;;19.00;98.50;;;;;;5078877;28;20183;-71
2021/08/27 01:30:20;;;;;;;3.03;2.20;;;18.90;98.50;;;;;;5073517;28;20257;-72
2021/08/27 01:32:59;;;;;;;3.00;2.03;;;18.90;98.20;;;;;;5066988;28;20182;-72
2021/08/27 01:35:29;;;;;;;1.80;1.52;;;18.90;98.20;;;;;;5065351;28;20185;-72
2021/08/27 01:37:57;;;;;;;2.05;1.90;;;18.80;98.00;;;;;;5067456;28;20182;-72
2021/08/27 01:40:25;;;;;;;3.50;1.63;;;18.80;98.10;;;;;;5068667;28;20183;-74
2021/08/27 01:42:52;;;;;;;2.63;2.00;;;18.70;98.20;;;;;;5069715;28;20349;-74
2021/08/27 01:45:19;;;;;;;3.65;2.08;;;18.70;98.00;;;;;;5073602;28;20184;-74
2021/08/27 01:47:46;;;;;;;2.60;2.40;;;18.70;98.40;;;;;;5073084;28;20874;-76
2021/08/27 01:50:13;;;;;;;2.90;2.42;;;18.60;98.50;;;;;;5088321;28;21545;-75
2021/08/27 01:52:41;;;;;;;2.38;2.15;;;18.60;98.50;;;;;;5069606;28;20187;-79
2021/08/27 01:55:08;;;;;;;3.75;2.20;;;18.50;98.50;;;;;;5080236;28;20269;-79
2021/08/27 01:57:35;;;;;;;1.77;1.77;;;18.50;98.50;;;;;;5087897;28;20245;-79
2021/08/27 02:00:03;;;;;;;2.45;2.22;;;18.50;98.50;;;;;;5097383;28;20661;-79
2021/08/27 02:02:30;;;;;;;2.15;1.88;;;18.40;98.50;;;;;;5094854;28;20194;-79
2021/08/27 02:05:00;;;;;;;1.55;1.38;;;18.40;98.50;;;;;;5090681;28;20716;-78
2021/08/27 02:07:26;;;;;;;2.13;2.03;;;18.30;98.50;;;;;;5086670;28;20284;-78
2021/08/27 02:09:55;;;;;;;2.75;2.58;;;18.30;98.50;;;;;;5087414;28;20195;-78
2021/08/27 02:12:22;;;;;;;7.45;1.80;;;18.40;98.50;;;;;;5080487;28;20178;-77
2021/08/27 02:14:53;;;;;;;2.75;2.42;;;18.40;98.50;;;;;;5080581;28;20194;-77
2021/08/27 02:17:19;;;;;;;2.42;1.48;;;18.40;98.50;;;;;;5083017;28;20182;-77
2021/08/27 02:19:45;;;;;;;2.83;1.90;;;18.40;98.50;;;;;;5072990;28;20179;-77
2021/08/27 02:22:15;;;;;;;3.47;2.22;;;18.40;98.50;;;;;;5082310;28;20203;-77
2021/08/27 02:24:45;;;;;;;1.90;1.80;;;18.40;98.50;;;;;;5082648;28;20191;-77
2021/08/27 02:27:11;;;;;;;2.05;1.95;;;18.50;98.50;;;;;;5072750;28;20183;-78
2021/08/27 02:29:39;;;;;;;3.20;1.65;;;18.50;98.50;;;;;;5081131;28;20270;-77
2021/08/27 02:32:08;;;;;;;1.65;1.55;;;18.50;98.50;;;;;;5082713;28;20170;-77
2021/08/27 02:34:37;;;;;;;2.55;1.92;;;18.50;98.50;;;;;;5078270;28;20189;-78
2021/08/27 02:37:05;;;;;;;3.95;2.15;;;18.60;98.50;;;;;;5083575;28;20282;-78
2021/08/27 02:39:31;;;;;;;2.25;1.77;;;18.60;98.50;;;;;;5089868;28;20243;-76
2021/08/27 02:41:57;;;;;;;2.05;1.95;;;18.60;98.50;;;;;;5101817;28;20240;-76
2021/08/27 02:44:25;;;;;;;4.40;2.10;;;18.60;98.50;;;;;;5098341;28;20193;-77
2021/08/27 02:46:51;;;;;;;1.85;1.75;;;18.60;98.50;;;;;;5095098;28;20261;-77
2021/08/27 02:49:16;;;;;;;1.80;1.70;;;18.60;98.50;;;;;;5092560;28;20183;-76
2021/08/27 02:52:08;;;;;;;1.70;1.70;;;18.50;98.50;;;;;;5095792;28;20345;-77
2021/08/27 02:54:56;;;;;;;2.95;1.88;;;18.50;98.50;;;;;;5092109;28;20183;-76
2021/08/27 02:57:23;;;;;;;1.23;1.23;;;18.50;98.50;;;;;;5089984;28;20178;-78
2021/08/27 02:59:53;;;;;;;1.77;1.70;;;18.50;98.50;;;;;;5102364;28;20250;-78
2021/08/27 03:02:20;;;;;;;1.60;1.48;;;18.50;98.50;;;;;;5096915;28;20194;-77
2021/08/27 03:04:58;;;;;;;1.35;1.35;;;18.60;98.50;;;;;;5078490;28;20175;-76
2021/08/27 03:07:27;;;;;;;3.15;1.50;;;18.60;98.50;;;;;;5073770;28;20201;-76
2021/08/27 03:10:18;;;;;;;2.10;1.58;;;18.60;98.50;;;;;;5071745;28;20199;-76
2021/08/27 03:12:56;;;;;;;1.50;1.40;;;18.60;98.50;;;;;;5075710;28;20187;-76
2021/08/27 03:15:27;;;;;;;2.10;1.38;;;18.60;98.50;;;;;;5086023;28;20186;-78
2021/08/27 03:17:55;;;;;;;3.65;1.77;;;18.60;98.50;;;;;;5096830;28;20195;-77
2021/08/27 03:20:25;;;;;;;1.55;1.40;;;18.50;98.50;;;;;;5091598;28;20187;-77
2021/08/27 03:22:56;;;;;;;1.55;1.55;;;18.50;98.50;;;;;;5082008;28;20225;-77
2021/08/27 03:25:24;;;;;;;1.58;1.48;;;18.50;98.50;;;;;;5086596;28;20185;-77
2021/08/27 03:27:53;;;;;;;2.42;1.90;;;18.50;98.50;;;;;;5096237;28;20202;-78
2021/08/27 03:30:24;;;;;;;1.35;1.25;;;18.50;98.50;;;;;;5093066;28;20179;-77
2021/08/27 03:32:53;;;;;;;3.28;1.60;;;18.50;98.50;;;;;;5094954;28;20190;-77
2021/08/27 03:35:20;;;;;;;2.65;1.70;;;18.50;98.50;;;;;;5085151;28;20181;-77
2021/08/27 03:37:49;;;;;;;1.92;1.85;;;18.50;98.50;;;;;;5085891;28;20181;-77
2021/08/27 03:40:16;;;;;;;3.90;1.65;;;18.50;98.50;;;;;;5115011;28;20185;-78
2021/08/27 03:42:42;;;;;;;2.25;1.70;;;18.50;98.50;;;;;;5090003;28;20228;-77
2021/08/27 03:45:09;;;;;;;3.38;1.80;;;18.50;98.50;;;;;;5093275;28;20170;-76
2021/08/27 03:47:38;;;;;;;1.67;1.58;;;18.50;98.50;;;;;;5091613;28;20189;-77
2021/08/27 03:50:05;;;;;;;1.77;1.75;;;18.60;98.50;;;;;;5086750;28;20175;-78
2021/08/27 03:52:31;;;;;;;2.45;2.22;;;18.50;98.50;;;;;;5090824;28;20270;-78
2021/08/27 03:54:57;;;;;;;1.52;1.52;;;18.50;98.50;;;;;;5085391;28;20314;-78
2021/08/27 03:57:25;;;;;;;2.08;1.98;;;18.40;98.50;;;;;;5087906;28;20223;-78
2021/08/27 03:59:51;;;;;;;1.55;1.50;;;18.40;98.50;;;;;;5094375;28;20179;-78
2021/08/27 04:02:16;;;;;;;1.83;1.73;;;18.40;98.50;;;;;;5097727;28;20600;-77
2021/08/27 04:04:42;;;;;;;1.90;1.70;;;18.40;98.50;;;;;;5097351;28;20182;-78
2021/08/27 04:07:08;;;;;;;2.00;1.90;;;18.40;98.50;;;;;;5084112;28;20174;-77
2021/08/27 04:09:35;;;;;;;2.13;2.03;;;18.40;98.50;;;;;;5088619;28;20182;-77
2021/08/27 04:12:04;;;;;;;1.35;1.30;;;18.50;98.50;;;;;;5085001;28;20183;-77
2021/08/27 04:14:29;;;;;;;1.75;1.65;;;18.50;98.50;;;;;;5086082;28;20190;-76
2021/08/27 04:16:56;;;;;;;2.33;1.73;;;18.50;98.50;;;;;;5092819;28;20289;-77
2021/08/27 04:19:22;;;;;;;1.48;1.38;;;18.60;98.50;;;;;;5080261;28;20578;-76
2021/08/27 04:21:48;;;;;;;2.05;1.88;;;18.60;98.50;;;;;;5081879;28;20269;-76
2021/08/27 04:24:13;;;;;;;2.03;1.88;;;18.60;98.50;;;;;;5073627;28;20210;-76
2021/08/27 04:26:39;;;;;;;2.47;1.85;;;18.60;98.50;;;;;;5084944;28;20660;-76
2021/08/27 04:29:06;;;;;;;2.05;1.95;;;18.60;98.50;;;;;;5084823;28;20175;-76
2021/08/27 04:31:32;;;;;;;2.03;1.90;;;18.60;98.50;;;;;;5076133;28;20190;-76
2021/08/27 04:33:57;;;;;;;1.98;1.88;;;18.60;98.50;;;;;;5096207;28;20275;-77
2021/08/27 04:36:23;;;;;;;2.45;2.03;;;18.60;98.50;;;;;;5098075;28;20225;-76
2021/08/27 04:38:50;;;;;;;1.92;1.83;;;18.70;98.50;;;;;;5094263;28;20198;-77
2021/08/27 04:41:16;;;;;;;2.40;2.15;;;18.70;98.50;;;;;;5095492;28;20175;-77
2021/08/27 04:43:42;;;;;;;5.20;3.03;;;18.70;98.50;;;;;;5104583;28;20210;-77
2021/08/27 04:46:11;;;;;;;2.83;2.63;;;18.70;98.50;;;;;;5087033;28;20238;-77
2021/08/27 04:48:37;;;;;;;3.13;2.90;;;18.80;98.50;;;;;;5091829;28;20180;-77
2021/08/27 04:51:03;;;;;;;3.60;3.38;;;18.80;98.50;;;;;;5087584;28;20577;-77
2021/08/27 04:53:29;;;;;;;3.45;2.92;;;18.80;98.50;;;;;;5089179;28;20183;-76
2021/08/27 04:55:55;;;;;;;2.72;2.53;;;18.80;98.50;;;;;;5098697;28;20182;-76
2021/08/27 04:58:24;;;;;;;3.20;2.70;;;18.70;98.50;;;;;;5095330;28;20178;-76
2021/08/27 05:00:50;;;;;;;5.78;3.15;;;18.70;98.50;;;;;;5090687;28;20787;-76
2021/08/27 05:03:16;;;;;;;3.63;2.67;;;18.70;98.50;;;;;;5098702;28;20192;-76
2021/08/27 05:05:42;;;;;;;2.40;2.20;;;18.70;98.50;;;;;;5096693;28;20178;-76
2021/08/27 05:08:08;;;;;;;2.70;2.38;;;18.60;98.50;;;;;;5101296;28;20187;-76
2021/08/27 05:10:33;;;;;;;2.10;2.00;;;18.60;98.50;;;;;;5100823;28;20207;-77
2021/08/27 05:13:00;;;;;;;2.40;2.15;;;18.60;98.50;;;;;;5090015;28;20230;-77
2021/08/27 05:15:26;;;;;;;1.85;1.75;;;18.60;98.50;;;;;;5093076;28;20180;-77
2021/08/27 05:17:52;;;;;;;2.05;1.77;;;18.60;98.50;;;;;;5088530;28;20206;-77
2021/08/27 05:20:17;;;;;;;2.20;2.10;;;18.70;98.50;;;;;;5089584;28;20208;-76
2021/08/27 05:22:44;;;;;;;2.80;2.60;;;18.80;98.50;;;;;;5092483;28;20208;-76
2021/08/27 05:25:11;;;;;;;3.00;2.40;;;18.90;98.50;;;;;;5099948;28;20171;-77
2021/08/27 05:27:38;;;;;;;3.55;2.40;;;19.00;98.50;;;;;;5097184;28;20230;-76
2021/08/27 05:30:08;;;;;;;1.75;1.70;;;19.10;98.50;;;;;;5092894;28;20197;-76
2021/08/27 05:32:34;;;;;;;2.53;2.42;;;19.20;98.50;;;;;;5089115;28;20182;-77
2021/08/27 05:35:00;;;;;;;2.60;2.50;;;19.30;98.50;;;;;;5103227;28;20171;-77
2021/08/27 05:37:26;;;;;;;2.45;2.35;;;19.40;98.50;;;;;;5098112;28;20187;-76
2021/08/27 05:39:52;;;;;;;2.50;2.40;;;19.50;98.50;;;;;;5101440;28;20272;-76
2021/08/27 05:42:18;;;;;;;3.47;3.20;;;19.60;98.50;;;;;;5074453;28;20207;-74
2021/08/27 05:44:44;;;;;;;2.97;2.78;;;19.60;98.50;;;;;;5071852;28;20190;-74
2021/08/27 05:47:10;;;;;;;2.78;2.60;;;19.70;98.50;;;;;;5073645;28;20190;-74
2021/08/27 05:49:36;;;;;;;3.42;3.13;;;19.80;98.50;;;;;;5074133;28;20262;-74
2021/08/27 05:52:02;;;;;;;2.80;2.70;;;19.80;98.50;;;;;;5078813;28;20183;-75
2021/08/27 05:54:28;;;;;;;3.63;3.33;;;19.80;97.80;;;;;;5074904;28;20254;-75
2021/08/27 05:56:55;;;;;;;3.70;2.55;;;19.90;98.10;;;;;;5076503;28;20259;-75
2021/08/27 05:59:21;;;;;;;3.58;3.38;;;19.90;97.60;;;;;;5069061;28;20191;-75
2021/08/27 06:01:46;;;;;;;3.08;2.88;;;19.90;97.70;;;;;;5070617;28;20640;-74
2021/08/27 06:04:13;;;;;;;2.75;2.60;;;19.90;97.70;;;;;;5074532;28;20239;-74
2021/08/27 06:06:40;;;;;;;3.20;3.08;;;20.00;97.60;;;;;;5068618;28;20315;-74
2021/08/27 06:09:07;;;;;;;3.20;2.95;;;20.00;97.60;;;;;;5068166;28;20631;-74
2021/08/27 06:11:37;;;;;;;3.15;3.03;;;20.10;97.50;;;;;;5073499;28;20177;-74
2021/08/27 06:14:04;;;;;;;3.83;3.63;;;20.10;97.10;;;;;;5071174;28;20198;-74
2021/08/27 06:16:30;;;;;;;3.40;3.20;;;20.10;97.30;;;;;;5070904;28;20218;-74
2021/08/27 06:18:56;;;;;;;3.40;3.20;;;20.20;97.40;;;;;;5074523;28;20179;-74
2021/08/27 06:21:22;;;;;;;4.28;3.95;;;20.20;97.30;;;;;;5066923;28;20190;-73
2021/08/27 06:23:48;;;;;;;4.15;3.75;;;20.20;97.30;;;;;;5067593;28;20211;-75
2021/08/27 06:26:13;;;;;;;3.13;3.00;;;20.20;96.90;;;;;;5076463;28;20170;-76
2021/08/27 06:28:39;;;;;;;3.45;3.25;;;20.20;96.60;;;;;;5082778;28;20190;-75
2021/08/27 06:31:05;;;;;;;3.67;3.45;;;20.20;96.90;;;;;;5078993;28;20234;-74
2021/08/27 06:33:31;;;;;;;3.33;3.13;;;20.20;97.20;;;;;;5068390;28;20191;-74
2021/08/27 06:35:58;;;;;;;3.95;3.65;;;20.20;96.90;;;;;;5070268;28;20194;-73
2021/08/27 06:38:25;;;;;;;3.47;3.20;;;20.20;96.50;;;;;;5067650;28;20260;-73
2021/08/27 06:41:00;;;;;;;3.67;3.45;;;20.20;96.90;;;;;;5059916;28;20652;-73
2021/08/27 06:43:27;;;;;;;4.15;3.47;;;20.20;97.00;;;;;;5072210;28;20232;-75
2021/08/27 06:45:57;;;;;;;3.90;3.65;;;20.20;97.00;;;;;;5070477;28;20286;-74
2021/08/27 06:48:22;;;;;;;4.05;3.42;;;20.30;97.20;;;;;;5064816;28;20179;-73
2021/08/27 06:50:48;;;;;;;3.38;3.20;;;20.30;97.40;;;;;;5065305;28;20175;-73
2021/08/27 06:53:14;;;;;;;5.15;2.97;;;20.40;97.10;;;;;;5064596;28;20198;-72
2021/08/27 06:55:40;;;;;;;4.00;3.63;;;20.50;96.60;;;;;;5068444;28;20183;-74
2021/08/27 06:58:06;;;;;;;3.53;3.28;;;20.50;96.60;;;;;;5066732;28;20487;-72
2021/08/27 07:00:33;;;;;;;3.63;3.33;;;20.60;96.50;;;;;;5070839;28;20185;-72
2021/08/27 07:02:59;;;;;;;2.92;2.72;;;20.60;96.50;;;;;;5068527;28;20206;-72
2021/08/27 07:05:25;;;;;;;3.22;2.92;;;20.70;95.80;;;;;;5068222;28;20567;-72
2021/08/27 07:07:50;;;;;;;3.25;3.05;;;20.70;95.40;;;;;;5064752;28;20186;-73
2021/08/27 07:10:16;;;;;;;3.22;2.90;;;20.80;95.90;;;;;;5067344;28;20191;-74
2021/08/27 07:12:42;;;;;;;3.67;3.38;;;20.90;95.50;;;;;;5062608;28;20187;-72
2021/08/27 07:15:09;;;;;;;2.95;2.85;;;20.90;94.80;;;;;;5065593;28;20287;-74
2021/08/27 07:17:34;;;;;;;3.05;2.88;;;20.80;93.50;;;;;;5072829;28;20208;-70
2021/08/27 07:20:00;;;;;;;4.10;3.67;;;20.80;93.40;;;;;;5073583;28;20206;-71
2021/08/27 07:22:26;;;;;;;2.97;2.80;;;20.80;93.40;;;;;;5063806;28;20207;-70
2021/08/27 07:24:52;;;;;;;5.03;3.35;;;20.80;93.80;;;;;;5061974;28;20652;-73
2021/08/27 07:27:18;;;;;;;3.70;3.50;;;20.90;94.60;;;;;;5069530;28;20189;-73
2021/08/27 07:29:44;;;;;;;4.75;3.55;;;21.00;94.20;;;;;;5071884;28;20178;-73
2021/08/27 07:32:12;;;;;;;4.03;3.78;;;21.20;93.90;;;;;;5066119;28;20183;-72
2021/08/27 07:34:40;;;;;;;5.97;4.20;;;21.30;93.70;;;;;;5063624;28;20182;-73
2021/08/27 07:37:10;;;;;;;5.80;4.70;;;21.60;93.40;;;;;;5072702;28;20174;-71
2021/08/27 07:39:36;;;;;;;4.90;4.47;;;21.70;91.80;;;;;;5069477;28;20635;-71
2021/08/27 07:42:02;;;;;;;5.65;4.90;;;21.70;91.40;;;;;;5065683;28;20674;-71
2021/08/27 07:44:29;;;;;;;9.50;4.72;;;21.80;91.40;;;;;;5067792;28;20194;-70
2021/08/27 07:46:56;;;;;;;6.15;5.55;;;21.90;91.90;;;;;;5061293;28;20566;-68
2021/08/27 07:49:21;;;;;;;5.28;4.80;;;22.00;92.20;;;;;;5058795;28;20184;-70
2021/08/27 07:51:49;;;;;;;7.55;5.05;;;22.10;90.90;;;;;;5065320;28;20619;-71
2021/08/27 07:54:15;;;;;;;5.18;4.72;;;22.20;90.50;;;;;;5064129;28;20643;-72
2021/08/27 07:56:41;;;;;;;6.30;4.97;;;22.30;90.90;;;;;;5065454;28;20254;-70
2021/08/27 07:59:07;;;;;;;5.72;5.18;;;22.40;91.10;;;;;;5061663;28;20667;-70
2021/08/27 08:01:33;;;;;;;4.93;4.18;;;22.50;92.00;;;;;;5064354;28;20231;-68
2021/08/27 08:04:01;;;;;;;6.47;5.45;;;22.60;91.50;;;;;;5067822;28;20214;-71
2021/08/27 08:06:27;;;;;;;5.10;4.68;;;22.80;90.90;;;;;;5063777;28;20189;-71
2021/08/27 08:08:52;;;;;;;5.90;5.05;;;23.00;90.50;;;;;;5066311;28;20644;-71
2021/08/27 08:11:18;;;;;;;5.07;4.68;;;23.20;89.30;;;;;;5065550;28;20183;-72
2021/08/27 08:13:44;;;;;;;5.45;5.05;;;23.30;89.60;;;;;;5065136;28;20198;-71
2021/08/27 08:16:11;;;;;;;6.05;5.47;;;23.40;88.70;;;;;;5064172;28;20183;-73
2021/08/27 08:18:37;;;;;;;7.47;5.72;;;23.40;87.70;;;;;;5078381;28;20185;-72
2021/08/27 08:21:03;;;;;;;7.20;5.93;;;23.50;88.70;;;;;;5060502;28;20182;-72
2021/08/27 08:23:29;;;;;;;6.18;5.13;;;23.60;88.00;;;;;;5068321;28;20276;-71
2021/08/27 08:25:55;;;;;;;5.85;5.35;;;23.70;88.60;;;;;;5073548;28;20191;-71
2021/08/27 08:28:21;;;;;;;6.28;5.75;;;23.90;87.90;;;;;;5065459;28;20735;-71
2021/08/27 08:30:48;;;;;;;6.60;5.85;;;24.00;87.50;;;;;;5059493;28;20291;-69
2021/08/27 08:33:14;;;;;;;6.68;6.07;;;24.20;86.90;;;;;;5063068;28;20816;-69
2021/08/27 08:35:40;;;;;;;8.07;5.80;;;24.20;86.20;;;;;;5070462;28;20304;-70
2021/08/27 08:38:06;;;;;;;6.85;6.13;;;24.30;86.30;;;;;;5069478;28;20179;-70
2021/08/27 08:40:37;;;;;;;6.15;5.45;;;24.40;86.70;;;;;;5068678;28;20665;-69
2021/08/27 08:43:02;;;;;;;5.85;5.35;;;24.60;86.60;;;;;;5070000;28;20213;-71
2021/08/27 08:45:29;;;;;;;7.35;5.25;;;24.70;84.70;;;;;;5079512;28;20657;-70
2021/08/27 08:47:56;;;;;;;7.22;5.47;;;24.80;85.10;;;;;;5062018;28;20176;-69
2021/08/27 08:50:22;;;;;;;5.25;4.75;;;24.80;85.60;;;;;;5067658;28;20296;-69
2021/08/27 08:52:49;;;;;;;5.63;5.07;;;25.00;85.30;;;;;;5075542;28;20228;-70
2021/08/27 08:55:15;;;;;;;6.18;5.72;;;25.10;85.40;;;;;;5076606;28;20199;-71
2021/08/27 08:57:41;;;;;;;6.40;5.80;;;25.20;82.10;;;;;;5069663;28;20190;-72
2021/08/27 09:00:08;;;;;;;6.47;5.65;;;25.40;82.70;;;;;;5065726;28;20764;-74
2021/08/27 09:02:33;;;;;;;6.93;6.22;;;25.50;82.30;;;;;;5069188;28;20199;-72
2021/08/27 09:04:59;;;;;;;8.63;5.55;;;25.70;82.30;;;;;;5073818;28;20179;-75
2021/08/27 09:07:25;;;;;;;6.85;6.20;;;26.00;82.70;;;;;;5066580;28;20544;-74
2021/08/27 09:09:51;;;;;;;6.38;5.88;;;26.30;82.50;;;;;;5070225;28;20762;-72
2021/08/27 09:12:24;;;;;;;8.75;5.55;;;26.80;80.90;;;;;;5077293;28;20186;-72
2021/08/27 09:15:01;;;;;;;6.32;5.65;;;27.10;78.60;;;;;;5075737;28;20188;-72
2021/08/27 09:17:35;;;;;;;8.30;5.97;;;27.50;77.90;;;;;;5071215;28;20177;-73
2021/08/27 09:20:22;;;;;;;8.48;5.82;;;27.80;77.50;;;;;;5073028;28;20186;-73
2021/08/27 09:22:56;;;;;;;6.22;5.82;;;28.30;77.30;;;;;;5086767;28;20202;-75
2021/08/27 09:25:33;;;;;;;10.13;6.07;;;29.00;74.20;;;;;;5092868;28;20191;-76
2021/08/27 09:28:11;;;;;;;6.00;5.65;;;29.50;74.40;;;;;;5091056;28;20190;-75
2021/08/27 09:30:55;;;;;;;6.28;5.78;;;30.20;73.10;;;;;;5084383;28;20199;-75
2021/08/27 09:33:34;;;;;;;6.53;6.03;;;31.00;71.60;;;;;;5081107;28;20234;-75
2021/08/27 09:36:04;;;;;;;7.43;6.15;;;31.90;68.60;;;;;;5080758;28;20656;-76
2021/08/27 09:38:34;;;;;;;6.82;6.30;;;32.60;67.30;;;;;;5082130;28;20183;-75
2021/08/27 09:41:05;;;;;;;7.35;6.57;;;33.10;66.00;;;;;;5079224;28;20183;-73
2021/08/27 09:43:44;;;;;;;10.65;6.45;;;33.50;65.60;;;;;;5063870;28;20211;-74
2021/08/27 09:46:35;;;;;;;6.40;6.00;;;33.90;63.50;;;;;;5049781;28;20545;-74
2021/08/27 09:49:03;;;;;;;5.90;5.50;;;34.40;63.60;;;;;;5063328;28;20269;-75
2021/08/27 09:51:46;;;;;;;5.75;5.45;;;34.80;62.60;;;;;;5073512;28;20186;-74
2021/08/27 09:54:26;;;;;;;6.60;6.10;;;35.30;62.40;;;;;;5070742;28;20228;-73
2021/08/27 09:56:54;;;;;;;6.00;5.40;;;36.30;60.70;;;;;;5069062;28;20209;-73
2021/08/27 09:59:46;;;;;;;5.45;5.07;;;36.50;58.40;;;;;;5063302;28;20184;-72
2021/08/27 10:02:28;;;;;;;5.35;5.00;;;36.90;59.50;;;;;;5054761;28;20198;-74
2021/08/27 10:04:57;;;;;;;5.43;4.93;;;37.40;60.40;;;;;;5054179;28;20244;-74
2021/08/27 10:07:28;;;;;;;5.80;5.20;;;37.80;56.50;;;;;;5054781;28;20684;-74
2021/08/27 10:09:54;;;;;;;5.88;5.30;;;37.00;56.80;;;;;;5062506;28;20208;-74
2021/08/27 10:12:21;;;;;;;5.55;5.13;;;36.00;57.30;;;;;;5056424;28;20704;-73
2021/08/27 10:14:49;;;;;;;5.43;5.10;;;35.80;60.30;;;;;;5060551;28;20251;-75
2021/08/27 10:17:15;;;;;;;4.93;4.50;;;36.10;60.20;;;;;;5057865;28;20247;-74
2021/08/27 10:19:41;;;;;;;4.97;4.57;;;36.60;59.40;;;;;;5055300;28;20187;-75
2021/08/27 10:22:07;;;;;;;6.03;5.57;;;;;;;;;;5061212;28;20253;-74
2021/08/27 10:24:33;;;;;;;5.75;4.93;;;36.50;59.40;;;;;;5044153;28;20218;-75
2021/08/27 10:27:00;;;;;;;5.88;5.30;;;36.20;59.00;;;;;;5042532;28;20178;-74
2021/08/27 10:29:27;;;;;;;5.25;4.95;;;36.10;59.20;;;;;;5059125;28;20222;-75
2021/08/27 10:31:54;;;;;;;5.60;5.20;;;36.40;60.90;;;;;;5055720;28;20301;-74
2021/08/27 10:34:43;;;;;;;4.65;4.40;;;36.90;59.00;;;;;;5041200;28;20268;-74
2021/08/27 10:37:29;;;;;;;5.20;4.78;;;37.00;56.50;;;;;;5053653;28;20191;-75
2021/08/27 10:39:56;;;;;;;5.07;4.70;;;;;;;;;;5067194;28;20202;-73
2021/08/27 10:42:50;;;;;;;9.20;5.63;;;38.40;56.90;;;;;;5075489;28;20245;-73
2021/08/27 10:45:39;;;;;;;5.82;5.32;;;39.10;57.40;;;;;;5070926;28;20183;-74
2021/08/27 10:48:10;;;;;;;5.45;5.18;;;39.70;54.40;;;;;;5076908;28;20189;-74
2021/08/27 10:50:41;;;;;;;5.88;5.32;;;40.10;52.70;;;;;;5075577;28;20223;-75
2021/08/27 10:53:32;;;;;;;6.35;5.88;;;40.10;54.10;;;;;;5074167;28;20219;-74
2021/08/27 10:56:46;;;;;;;5.68;5.38;;;39.90;54.10;;;;;;5075446;28;20189;-74
2021/08/27 10:59:14;;;;;;;6.70;6.20;;;39.00;55.50;;;;;;5079624;28;20241;-74
2021/08/27 11:01:43;;;;;;;5.78;5.47;;;38.30;56.70;;;;;;5081553;28;20182;-75
2021/08/27 11:04:17;;;;;;;5.20;5.00;;;37.60;56.20;;;;;;5075944;28;20217;-73
2021/08/27 11:06:53;;;;;;;5.70;5.40;;;37.00;55.30;;;;;;5075549;28;20193;-75
2021/08/27 11:09:24;;;;;;;5.00;4.80;;;37.20;57.10;;;;;;5072569;28;20183;-74
2021/08/27 11:12:11;;;;;;;4.50;4.18;;;37.30;58.00;;;;;;5073850;28;20201;-73
2021/08/27 11:14:38;;;;;;;5.07;4.78;;;37.90;54.90;;;;;;5070015;28;20639;-74
2021/08/27 11:17:07;;;;;;;5.03;4.60;;;38.40;55.10;;;;;;5069231;28;20178;-74
2021/08/27 11:19:38;;;;;;;5.13;4.60;;;39.00;55.40;;;;;;5079525;28;20247;-73
2021/08/27 11:22:10;;;;;;;4.35;4.15;;;40.00;52.40;;;;;;5076510;28;20182;-74
2021/08/27 11:24:40;;;;;;;4.90;4.53;;;40.40;49.80;;;;;;5071720;28;20210;-73
2021/08/27 11:27:08;;;;;;;4.93;4.65;;;40.40;52.10;;;;;;5068068;28;20185;-73
2021/08/27 11:29:36;;;;;;;5.05;4.72;;;40.60;52.50;;;;;;5076723;28;20189;-74
2021/08/27 11:32:19;;;;;;;5.28;4.78;;;40.80;51.90;;;;;;5063059;28;20185;-74
2021/08/27 11:35:05;;;;;;;5.38;5.05;;;40.90;51.50;;;;;;5066066;28;20182;-74
2021/08/27 11:37:38;;;;;;;5.18;4.82;;;41.20;48.80;;;;;;5072270;28;20190;-74
2021/08/27 11:40:06;;;;;;;5.25;4.90;;;42.10;50.70;;;;;;5071898;28;20207;-74
2021/08/27 11:42:32;;;;;;;4.38;4.18;;;42.10;51.40;;;;;;5074260;28;20630;-73
2021/08/27 11:45:05;;;;;;;4.60;4.20;;;42.70;50.40;;;;;;5067497;28;20171;-74
2021/08/27 11:47:51;;;;;;;4.57;4.30;;;43.20;48.50;;;;;;5065796;28;20187;-73
2021/08/27 11:50:37;;;;;;;4.65;4.47;;;43.30;45.90;;;;;;5076164;28;20798;-74
2021/08/27 11:53:04;;;;;;;4.18;4.07;;;42.70;45.70;;;;;;5072526;28;20178;-73
2021/08/27 11:55:30;;;;;;;4.75;4.22;;;41.40;48.80;;;;;;5070327;28;21076;-73
2021/08/27 11:58:02;;;;;;;4.78;4.38;;;40.00;49.60;;;;;;5064696;28;20187;-72
2021/08/27 12:00:31;;;;;;;4.25;3.75;;;38.70;50.90;;;;;;5066346;28;20197;-73
2021/08/27 12:02:57;;;;;;;3.60;3.38;;;37.70;52.40;;;;;;5070019;28;20623;-71
2021/08/27 12:05:24;;;;;;;5.30;4.00;;;37.50;53.10;;;;;;5079185;28;20186;-70
2021/08/27 12:07:54;;;;;;;3.55;3.40;;;37.80;53.80;;;;;;5066788;28;20262;-72
2021/08/27 12:10:21;;;;;;;3.95;3.75;;;38.10;54.00;;;;;;5069108;28;20606;-71
2021/08/27 12:12:49;;;;;;;3.75;3.55;;;38.50;53.70;;;;;;5066159;28;20658;-71
2021/08/27 12:15:18;;;;;;;4.15;3.05;;;39.10;52.60;;;;;;5065092;28;20190;-73
2021/08/27 12:18:02;;;;;;;4.45;4.15;;;39.80;50.10;;;;;;5064430;28;20185;-73
2021/08/27 12:20:34;;;;;;;3.67;3.50;;;40.60;48.80;;;;;;5075404;28;20200;-72
2021/08/27 12:23:06;;;;;;;5.22;4.15;;;41.30;51.40;;;;;;5065213;28;20217;-72
2021/08/27 12:25:39;;;;;;;4.20;4.00;;;41.90;48.10;;;;;;5070030;28;20193;-73
2021/08/27 12:28:05;;;;;;;4.60;3.83;;;42.40;49.20;;;;;;5075985;28;20163;-75
2021/08/27 12:30:31;;;;;;;3.85;3.75;;;42.80;48.80;;;;;;5065522;28;20189;-75
2021/08/27 12:32:57;;;;;;;4.20;3.90;;;43.20;48.60;;;;;;5073248;28;20227;-76
2021/08/27 12:35:32;;;;;;;4.35;4.15;;;43.60;45.90;;;;;;5074202;28;20273;-72
2021/08/27 12:37:59;;;;;;;3.85;3.60;;;43.90;45.20;;;;;;5078084;28;20178;-71
2021/08/27 12:40:27;;;;;;;4.22;3.97;;;44.00;47.90;;;;;;5076005;28;20177;-71
2021/08/27 12:43:06;;;;;;;4.53;4.32;;;43.90;48.60;;;;;;5077918;28;20702;-71
2021/08/27 12:45:52;;;;;;;3.90;3.70;;;43.90;47.90;;;;;;5070117;28;20268;-71
2021/08/27 12:48:24;;;;;;;4.03;3.78;;;44.20;48.60;;;;;;5070854;28;20210;-77
2021/08/27 12:51:01;;;;;;;3.95;3.75;;;44.30;45.60;;;;;;5058968;28;20206;-76
2021/08/27 12:53:34;;;;;;;4.03;3.83;;;44.30;44.60;;;;;;5065560;28;20690;-71
2021/08/27 12:56:18;;;;;;;4.25;3.92;;;43.90;46.30;;;;;;5068361;28;20769;-71
2021/08/27 12:58:48;;;;;;;4.63;4.35;;;43.50;44.60;;;;;;5071093;28;20175;-71